sensor_id;sensor_type;location;lat;lon;timestamp;temperature;humidity
54431;DHT22;40342;52.998;5.862;2024-03-23T00:54:23;5.00;99.90
54431;DHT22;40342;52.998;5.862;2024-03-23T00:56:48;5.00;99.90
54431;DHT22;40342;52.998;5.862;2024-03-23T00:59:14;5.10;99.90
54431;DHT22;40342;52.998;5.862;2024-03-23T01:01:40;5.10;99.90
54431;DHT22;40342;52.998;5.862;2024-03-23T01:04:05;5.10;99.90
54431;DHT22;40342;52.998;5.862;2024-03-23T01:06:31;5.20;99.90
54431;DHT22;40342;52.998;5.862;2024-03-23T01:08:56;5.20;99.90
54431;DHT22;40342;52.998;5.862;2024-03-23T01:11:22;5.20;99.90
54431;DHT22;40342;52.998;5.862;2024-03-23T01:13:48;5.20;99.90
54431;DHT22;40342;52.998;5.862;2024-03-23T01:16:13;5.20;99.90
54431;DHT22;40342;52.998;5.862;2024-03-23T01:18:39;5.20;99.90
54431;DHT22;40342;52.998;5.862;2024-03-23T01:21:04;5.20;99.90
54431;DHT22;40342;52.998;5.862;2024-03-23T01:23:30;5.20;99.90
54431;DHT22;40342;52.998;5.862;2024-03-23T01:25:56;5.20;99.90
54431;DHT22;40342;52.998;5.862;2024-03-23T01:28:22;5.20;99.90
54431;DHT22;40342;52.998;5.862;2024-03-23T01:30:48;5.20;99.90
54431;DHT22;40342;52.998;5.862;2024-03-23T01:33:14;5.20;99.90
54431;DHT22;40342;52.998;5.862;2024-03-23T01:35:40;5.20;99.90
54431;DHT22;40342;52.998;5.862;2024-03-23T01:38:06;5.20;99.90
54431;DHT22;40342;52.998;5.862;2024-03-23T01:40:31;5.20;99.90
54431;DHT22;40342;52.998;5.862;2024-03-23T01:43:05;5.20;99.90
54431;DHT22;40342;52.998;5.862;2024-03-23T01:45:33;5.20;99.90
54431;DHT22;40342;52.998;5.862;2024-03-23T01:47:59;5.10;99.90
54431;DHT22;40342;52.998;5.862;2024-03-23T01:50:25;5.10;99.90
54431;DHT22;40342;52.998;5.862;2024-03-23T01:52:51;5.10;99.90
54431;DHT22;40342;52.998;5.862;2024-03-23T01:55:17;5.10;99.90
54431;DHT22;40342;52.998;5.862;2024-03-23T01:57:43;5.00;99.90
54431;DHT22;40342;52.998;5.862;2024-03-23T02:00:09;5.00;99.90
54431;DHT22;40342;52.998;5.862;2024-03-23T02:02:44;5.00;99.90
54431;DHT22;40342;52.998;5.862;2024-03-23T02:05:14;5.00;99.90
54431;DHT22;40342;52.998;5.862;2024-03-23T02:07:41;5.00;99.90
54431;DHT22;40342;52.998;5.862;2024-03-23T02:10:07;5.00;99.90
54431;DHT22;40342;52.998;5.862;2024-03-23T02:12:33;5.00;99.90
54431;DHT22;40342;52.998;5.862;2024-03-23T02:14:59;5.00;99.90
54431;DHT22;40342;52.998;5.862;2024-03-23T02:17:24;4.90;99.90
54431;DHT22;40342;52.998;5.862;2024-03-23T02:19:50;4.90;99.90
54431;DHT22;40342;52.998;5.862;2024-03-23T02:22:16;4.80;99.90
54431;DHT22;40342;52.998;5.862;2024-03-23T02:24:42;4.80;99.90
54431;DHT22;40342;52.998;5.862;2024-03-23T02:27:08;4.80;99.90
54431;DHT22;40342;52.998;5.862;2024-03-23T02:29:33;4.70;99.90
54431;DHT22;40342;52.998;5.862;2024-03-23T02:31:59;4.60;99.90
54431;DHT22;40342;52.998;5.862;2024-03-23T02:34:25;4.50;99.90
54431;DHT22;40342;52.998;5.862;2024-03-23T02:36:51;4.50;99.90
54431;DHT22;40342;52.998;5.862;2024-03-23T02:39:16;4.40;99.90
54431;DHT22;40342;52.998;5.862;2024-03-23T02:41:42;4.40;99.90
54431;DHT22;40342;52.998;5.862;2024-03-23T02:44:07;4.40;99.90
54431;DHT22;40342;52.998;5.862;2024-03-23T02:46:37;4.30;99.90
54431;DHT22;40342;52.998;5.862;2024-03-23T02:49:03;4.30;99.90
54431;DHT22;40342;52.998;5.862;2024-03-23T02:51:30;4.30;99.90
54431;DHT22;40342;52.998;5.862;2024-03-23T02:53:55;4.30;99.90
54431;DHT22;40342;52.998;5.862;2024-03-23T02:56:21;4.30;99.90
54431;DHT22;40342;52.998;5.862;2024-03-23T02:58:47;4.20;99.90
54431;DHT22;40342;52.998;5.862;2024-03-23T03:01:12;4.20;99.90
54431;DHT22;40342;52.998;5.862;2024-03-23T03:03:38;4.10;99.90
54431;DHT22;40342;52.998;5.862;2024-03-23T03:06:04;4.10;99.90
54431;DHT22;40342;52.998;5.862;2024-03-23T03:08:29;4.10;99.90
54431;DHT22;40342;52.998;5.862;2024-03-23T03:10:55;4.10;99.90
54431;DHT22;40342;52.998;5.862;2024-03-23T03:13:21;4.10;99.90
54431;DHT22;40342;52.998;5.862;2024-03-23T03:15:46;4.00;99.90
54431;DHT22;40342;52.998;5.862;2024-03-23T03:18:12;4.00;99.90
54431;DHT22;40342;52.998;5.862;2024-03-23T03:20:40;3.90;99.90
54431;DHT22;40342;52.998;5.862;2024-03-23T03:23:07;3.80;99.90
54431;DHT22;40342;52.998;5.862;2024-03-23T03:25:33;3.80;99.90
54431;DHT22;40342;52.998;5.862;2024-03-23T03:27:59;3.70;99.90
54431;DHT22;40342;52.998;5.862;2024-03-23T03:30:25;3.70;99.90
54431;DHT22;40342;52.998;5.862;2024-03-23T03:32:53;3.70;99.90
54431;DHT22;40342;52.998;5.862;2024-03-23T03:35:18;3.70;99.90
54431;DHT22;40342;52.998;5.862;2024-03-23T03:37:44;3.60;99.90
54431;DHT22;40342;52.998;5.862;2024-03-23T03:40:10;3.60;99.90
54431;DHT22;40342;52.998;5.862;2024-03-23T03:42:36;3.70;99.90
54431;DHT22;40342;52.998;5.862;2024-03-23T03:45:02;3.70;99.90
54431;DHT22;40342;52.998;5.862;2024-03-23T03:47:29;3.70;99.90
54431;DHT22;40342;52.998;5.862;2024-03-23T03:49:55;3.70;99.90
54431;DHT22;40342;52.998;5.862;2024-03-23T03:52:21;3.60;99.90
54431;DHT22;40342;52.998;5.862;2024-03-23T03:54:46;3.50;99.90
54431;DHT22;40342;52.998;5.862;2024-03-23T03:57:12;3.50;99.90
54431;DHT22;40342;52.998;5.862;2024-03-23T03:59:37;3.50;99.90
54431;DHT22;40342;52.998;5.862;2024-03-23T04:02:03;3.50;99.90
54431;DHT22;40342;52.998;5.862;2024-03-23T04:04:29;3.50;99.90
54431;DHT22;40342;52.998;5.862;2024-03-23T04:07:01;3.50;99.90
54431;DHT22;40342;52.998;5.862;2024-03-23T04:09:27;3.40;99.90
54431;DHT22;40342;52.998;5.862;2024-03-23T04:11:53;3.40;99.90
54431;DHT22;40342;52.998;5.862;2024-03-23T04:14:18;3.40;99.90
54431;DHT22;40342;52.998;5.862;2024-03-23T04:16:44;3.40;99.90
54431;DHT22;40342;52.998;5.862;2024-03-23T04:19:10;3.30;99.90
54431;DHT22;40342;52.998;5.862;2024-03-23T04:21:36;3.30;99.90
54431;DHT22;40342;52.998;5.862;2024-03-23T04:24:02;3.30;99.90
54431;DHT22;40342;52.998;5.862;2024-03-23T04:26:28;3.30;99.90
54431;DHT22;40342;52.998;5.862;2024-03-23T04:28:54;3.30;99.90
54431;DHT22;40342;52.998;5.862;2024-03-23T04:31:19;3.30;99.90
54431;DHT22;40342;52.998;5.862;2024-03-23T04:33:45;3.30;99.90
54431;DHT22;40342;52.998;5.862;2024-03-23T04:36:10;3.30;99.90
54431;DHT22;40342;52.998;5.862;2024-03-23T04:38:36;3.40;99.90
54431;DHT22;40342;52.998;5.862;2024-03-23T04:41:02;3.40;99.90
54431;DHT22;40342;52.998;5.862;2024-03-23T04:43:28;3.40;99.90
54431;DHT22;40342;52.998;5.862;2024-03-23T04:45:54;3.40;99.90
54431;DHT22;40342;52.998;5.862;2024-03-23T04:48:23;3.40;99.90
54431;DHT22;40342;52.998;5.862;2024-03-23T04:50:49;3.40;99.90
54431;DHT22;40342;52.998;5.862;2024-03-23T04:53:16;3.50;99.90
54431;DHT22;40342;52.998;5.862;2024-03-23T04:55:42;3.40;99.90
54431;DHT22;40342;52.998;5.862;2024-03-23T04:58:08;3.40;99.90
54431;DHT22;40342;52.998;5.862;2024-03-23T05:00:33;3.40;99.90
54431;DHT22;40342;52.998;5.862;2024-03-23T05:02:59;3.50;99.90
54431;DHT22;40342;52.998;5.862;2024-03-23T05:05:25;3.40;99.90
54431;DHT22;40342;52.998;5.862;2024-03-23T05:07:50;3.40;99.90
54431;DHT22;40342;52.998;5.862;2024-03-23T05:10:16;3.40;99.90
54431;DHT22;40342;52.998;5.862;2024-03-23T05:12:42;3.40;99.90
54431;DHT22;40342;52.998;5.862;2024-03-23T05:15:07;3.50;99.90
54431;DHT22;40342;52.998;5.862;2024-03-23T05:17:33;3.60;99.90
54431;DHT22;40342;52.998;5.862;2024-03-23T05:19:59;3.60;99.90
54431;DHT22;40342;52.998;5.862;2024-03-23T05:22:25;3.70;99.90
54431;DHT22;40342;52.998;5.862;2024-03-23T05:24:50;3.80;99.90
54431;DHT22;40342;52.998;5.862;2024-03-23T05:27:16;3.90;99.90
54431;DHT22;40342;52.998;5.862;2024-03-23T05:29:41;4.00;99.90
54431;DHT22;40342;52.998;5.862;2024-03-23T05:32:07;4.10;99.90
54431;DHT22;40342;52.998;5.862;2024-03-23T05:34:33;4.20;99.90
54431;DHT22;40342;52.998;5.862;2024-03-23T05:36:59;4.30;99.90
54431;DHT22;40342;52.998;5.862;2024-03-23T05:39:25;4.30;99.90
54431;DHT22;40342;52.998;5.862;2024-03-23T05:41:50;4.40;99.90
54431;DHT22;40342;52.998;5.862;2024-03-23T05:44:16;4.50;99.90
54431;DHT22;40342;52.998;5.862;2024-03-23T05:46:42;4.50;99.90
54431;DHT22;40342;52.998;5.862;2024-03-23T05:49:08;4.50;99.90
54431;DHT22;40342;52.998;5.862;2024-03-23T05:51:34;4.70;99.90
54431;DHT22;40342;52.998;5.862;2024-03-23T05:54:00;4.70;99.90
54431;DHT22;40342;52.998;5.862;2024-03-23T05:56:26;4.70;99.90
54431;DHT22;40342;52.998;5.862;2024-03-23T05:58:52;4.80;99.90
54431;DHT22;40342;52.998;5.862;2024-03-23T06:01:17;4.80;99.90
54431;DHT22;40342;52.998;5.862;2024-03-23T06:03:43;4.80;99.90
54431;DHT22;40342;52.998;5.862;2024-03-23T06:06:10;4.90;99.90
54431;DHT22;40342;52.998;5.862;2024-03-23T06:08:37;4.90;99.90
54431;DHT22;40342;52.998;5.862;2024-03-23T06:11:04;5.00;99.90
54431;DHT22;40342;52.998;5.862;2024-03-23T06:13:33;5.00;99.90
54431;DHT22;40342;52.998;5.862;2024-03-23T06:16:02;5.00;99.90
54431;DHT22;40342;52.998;5.862;2024-03-23T06:18:28;5.00;99.90
54431;DHT22;40342;52.998;5.862;2024-03-23T06:20:54;5.10;99.90
54431;DHT22;40342;52.998;5.862;2024-03-23T06:23:19;5.10;99.90
54431;DHT22;40342;52.998;5.862;2024-03-23T06:25:46;5.10;99.90
54431;DHT22;40342;52.998;5.862;2024-03-23T06:28:12;5.20;99.90
54431;DHT22;40342;52.998;5.862;2024-03-23T06:30:38;5.20;99.90
54431;DHT22;40342;52.998;5.862;2024-03-23T06:33:03;5.20;99.90
54431;DHT22;40342;52.998;5.862;2024-03-23T06:35:31;5.20;99.90
54431;DHT22;40342;52.998;5.862;2024-03-23T06:37:57;5.30;99.90
54431;DHT22;40342;52.998;5.862;2024-03-23T06:40:23;5.30;99.90
54431;DHT22;40342;52.998;5.862;2024-03-23T06:42:49;5.30;99.90
54431;DHT22;40342;52.998;5.862;2024-03-23T06:45:16;5.30;99.90
54431;DHT22;40342;52.998;5.862;2024-03-23T06:47:41;5.20;99.90
54431;DHT22;40342;52.998;5.862;2024-03-23T06:50:07;5.30;99.90
54431;DHT22;40342;52.998;5.862;2024-03-23T06:52:33;5.30;99.90
54431;DHT22;40342;52.998;5.862;2024-03-23T06:54:58;5.40;99.90
54431;DHT22;40342;52.998;5.862;2024-03-23T06:57:24;5.60;99.90
54431;DHT22;40342;52.998;5.862;2024-03-23T06:59:50;5.60;99.90
54431;DHT22;40342;52.998;5.862;2024-03-23T07:02:16;5.60;99.90
54431;DHT22;40342;52.998;5.862;2024-03-23T07:04:41;5.60;99.90
54431;DHT22;40342;52.998;5.862;2024-03-23T07:07:07;5.50;99.90
54431;DHT22;40342;52.998;5.862;2024-03-23T07:09:33;5.40;99.90
54431;DHT22;40342;52.998;5.862;2024-03-23T07:11:58;5.40;99.90
54431;DHT22;40342;52.998;5.862;2024-03-23T07:14:24;5.30;99.90
54431;DHT22;40342;52.998;5.862;2024-03-23T07:16:50;5.30;99.90
54431;DHT22;40342;52.998;5.862;2024-03-23T07:19:17;5.20;99.90
54431;DHT22;40342;52.998;5.862;2024-03-23T07:21:43;5.10;99.90
54431;DHT22;40342;52.998;5.862;2024-03-23T07:24:09;5.10;99.90
54431;DHT22;40342;52.998;5.862;2024-03-23T07:26:35;5.10;99.90
54431;DHT22;40342;52.998;5.862;2024-03-23T07:29:01;5.10;99.90
54431;DHT22;40342;52.998;5.862;2024-03-23T07:31:27;5.10;99.90
54431;DHT22;40342;52.998;5.862;2024-03-23T07:33:53;5.10;99.90
54431;DHT22;40342;52.998;5.862;2024-03-23T07:36:19;5.10;99.90
54431;DHT22;40342;52.998;5.862;2024-03-23T07:38:45;5.10;99.90
54431;DHT22;40342;52.998;5.862;2024-03-23T07:41:13;5.10;99.90
54431;DHT22;40342;52.998;5.862;2024-03-23T07:43:39;5.10;99.90
54431;DHT22;40342;52.998;5.862;2024-03-23T07:46:06;5.00;99.90
54431;DHT22;40342;52.998;5.862;2024-03-23T07:48:32;5.00;99.90
54431;DHT22;40342;52.998;5.862;2024-03-23T07:51:09;4.90;99.90
54431;DHT22;40342;52.998;5.862;2024-03-23T07:53:36;4.90;99.90
54431;DHT22;40342;52.998;5.862;2024-03-23T07:56:07;5.00;99.90
54431;DHT22;40342;52.998;5.862;2024-03-23T07:58:33;5.10;99.90
54431;DHT22;40342;52.998;5.862;2024-03-23T08:01:11;5.30;99.90
54431;DHT22;40342;52.998;5.862;2024-03-23T08:03:38;5.50;99.90
54431;DHT22;40342;52.998;5.862;2024-03-23T08:06:18;5.70;99.90
54431;DHT22;40342;52.998;5.862;2024-03-23T08:08:52;5.90;99.90
54431;DHT22;40342;52.998;5.862;2024-03-23T08:11:25;6.00;99.90
54431;DHT22;40342;52.998;5.862;2024-03-23T08:13:52;6.10;99.90
54431;DHT22;40342;52.998;5.862;2024-03-23T08:16:17;6.20;99.90
54431;DHT22;40342;52.998;5.862;2024-03-23T08:18:43;6.30;99.90
54431;DHT22;40342;52.998;5.862;2024-03-23T08:21:08;6.40;99.90
54431;DHT22;40342;52.998;5.862;2024-03-23T08:23:35;6.40;99.90
54431;DHT22;40342;52.998;5.862;2024-03-23T08:26:06;6.60;99.90
54431;DHT22;40342;52.998;5.862;2024-03-23T08:28:32;6.70;99.90
54431;DHT22;40342;52.998;5.862;2024-03-23T08:31:05;6.80;99.90
54431;DHT22;40342;52.998;5.862;2024-03-23T08:33:31;6.80;99.90
54431;DHT22;40342;52.998;5.862;2024-03-23T08:36:02;6.70;99.90
54431;DHT22;40342;52.998;5.862;2024-03-23T08:38:28;6.60;99.90
54431;DHT22;40342;52.998;5.862;2024-03-23T08:41:05;6.50;99.90
54431;DHT22;40342;52.998;5.862;2024-03-23T08:43:34;6.50;99.90
54431;DHT22;40342;52.998;5.862;2024-03-23T08:46:10;6.50;99.90
54431;DHT22;40342;52.998;5.862;2024-03-23T08:48:39;6.60;99.90
54431;DHT22;40342;52.998;5.862;2024-03-23T08:51:09;6.70;99.90
54431;DHT22;40342;52.998;5.862;2024-03-23T08:53:35;6.80;99.90
54431;DHT22;40342;52.998;5.862;2024-03-23T08:56:01;6.80;99.90
54431;DHT22;40342;52.998;5.862;2024-03-23T08:58:28;6.90;99.90
54431;DHT22;40342;52.998;5.862;2024-03-23T09:00:55;7.00;99.90
54431;DHT22;40342;52.998;5.862;2024-03-23T09:03:25;7.10;99.90
54431;DHT22;40342;52.998;5.862;2024-03-23T09:05:51;7.00;99.90
54431;DHT22;40342;52.998;5.862;2024-03-23T09:08:17;7.00;99.90
54431;DHT22;40342;52.998;5.862;2024-03-23T09:10:43;7.10;99.90
54431;DHT22;40342;52.998;5.862;2024-03-23T09:13:09;7.20;99.90
54431;DHT22;40342;52.998;5.862;2024-03-23T09:15:36;7.30;99.90
54431;DHT22;40342;52.998;5.862;2024-03-23T09:18:03;7.40;99.90
54431;DHT22;40342;52.998;5.862;2024-03-23T09:20:32;7.30;99.90
54431;DHT22;40342;52.998;5.862;2024-03-23T09:22:57;7.30;99.90
54431;DHT22;40342;52.998;5.862;2024-03-23T09:25:23;7.40;99.90
54431;DHT22;40342;52.998;5.862;2024-03-23T09:27:49;7.40;99.90
54431;DHT22;40342;52.998;5.862;2024-03-23T09:30:15;7.60;99.90
54431;DHT22;40342;52.998;5.862;2024-03-23T09:32:44;7.60;99.90
54431;DHT22;40342;52.998;5.862;2024-03-23T09:35:10;7.50;99.90
54431;DHT22;40342;52.998;5.862;2024-03-23T09:37:37;7.20;99.90
54431;DHT22;40342;52.998;5.862;2024-03-23T09:40:06;6.80;99.90
54431;DHT22;40342;52.998;5.862;2024-03-23T09:42:34;6.60;99.90
54431;DHT22;40342;52.998;5.862;2024-03-23T09:45:00;6.60;99.90
54431;DHT22;40342;52.998;5.862;2024-03-23T09:47:26;6.80;99.90
54431;DHT22;40342;52.998;5.862;2024-03-23T09:49:52;6.90;99.90
54431;DHT22;40342;52.998;5.862;2024-03-23T09:52:19;6.90;99.90
54431;DHT22;40342;52.998;5.862;2024-03-23T09:54:44;6.80;99.90
54431;DHT22;40342;52.998;5.862;2024-03-23T09:57:10;6.60;99.90
54431;DHT22;40342;52.998;5.862;2024-03-23T09:59:36;6.50;99.90
54431;DHT22;40342;52.998;5.862;2024-03-23T10:02:02;6.70;99.90
54431;DHT22;40342;52.998;5.862;2024-03-23T10:04:42;7.00;99.90
54431;DHT22;40342;52.998;5.862;2024-03-23T10:07:28;7.20;99.90
54431;DHT22;40342;52.998;5.862;2024-03-23T10:09:54;6.80;99.90
54431;DHT22;40342;52.998;5.862;2024-03-23T10:12:20;6.30;99.90
54431;DHT22;40342;52.998;5.862;2024-03-23T10:14:46;6.00;99.90
54431;DHT22;40342;52.998;5.862;2024-03-23T10:17:19;5.80;99.90
54431;DHT22;40342;52.998;5.862;2024-03-23T10:19:46;5.80;99.90
54431;DHT22;40342;52.998;5.862;2024-03-23T10:22:19;6.10;99.90
54431;DHT22;40342;52.998;5.862;2024-03-23T10:24:45;6.60;99.90
54431;DHT22;40342;52.998;5.862;2024-03-23T10:27:21;7.10;99.90
54431;DHT22;40342;52.998;5.862;2024-03-23T10:29:48;7.40;99.90
54431;DHT22;40342;52.998;5.862;2024-03-23T10:32:15;7.70;99.90
54431;DHT22;40342;52.998;5.862;2024-03-23T10:34:42;8.00;99.90
54431;DHT22;40342;52.998;5.862;2024-03-23T10:37:08;7.90;99.90
54431;DHT22;40342;52.998;5.862;2024-03-23T10:39:38;7.90;99.90
54431;DHT22;40342;52.998;5.862;2024-03-23T10:42:10;7.70;99.90
54431;DHT22;40342;52.998;5.862;2024-03-23T10:44:37;7.70;99.90
54431;DHT22;40342;52.998;5.862;2024-03-23T10:47:03;7.40;99.90
54431;DHT22;40342;52.998;5.862;2024-03-23T10:49:30;7.30;99.90
54431;DHT22;40342;52.998;5.862;2024-03-23T10:51:59;7.10;99.90
54431;DHT22;40342;52.998;5.862;2024-03-23T10:54:26;7.00;99.90
54431;DHT22;40342;52.998;5.862;2024-03-23T10:59:25;7.20;99.90
54431;DHT22;40342;52.998;5.862;2024-03-23T11:01:58;7.50;99.90
54431;DHT22;40342;52.998;5.862;2024-03-23T11:04:32;7.80;99.90
54431;DHT22;40342;52.998;5.862;2024-03-23T11:06:58;8.10;99.90
54431;DHT22;40342;52.998;5.862;2024-03-23T11:15:11;7.90;99.90
54431;DHT22;40342;52.998;5.862;2024-03-23T11:17:36;7.30;99.90
54431;DHT22;40342;52.998;5.862;2024-03-23T11:20:03;6.60;99.90
54431;DHT22;40342;52.998;5.862;2024-03-23T11:22:46;6.40;99.90
54431;DHT22;40342;52.998;5.862;2024-03-23T11:27:44;6.30;99.90
54431;DHT22;40342;52.998;5.862;2024-03-23T11:30:15;6.30;99.90
54431;DHT22;40342;52.998;5.862;2024-03-23T11:32:42;6.00;99.90
54431;DHT22;40342;52.998;5.862;2024-03-23T11:35:08;5.90;99.90
54431;DHT22;40342;52.998;5.862;2024-03-23T11:37:38;5.90;99.90
54431;DHT22;40342;52.998;5.862;2024-03-23T11:40:17;5.80;99.90
54431;DHT22;40342;52.998;5.862;2024-03-23T11:42:43;5.50;99.90
54431;DHT22;40342;52.998;5.862;2024-03-23T11:45:09;5.40;99.90
54431;DHT22;40342;52.998;5.862;2024-03-23T11:47:35;5.40;99.90
54431;DHT22;40342;52.998;5.862;2024-03-23T11:50:01;5.50;99.90
54431;DHT22;40342;52.998;5.862;2024-03-23T11:52:26;5.60;99.90
54431;DHT22;40342;52.998;5.862;2024-03-23T11:55:03;6.00;99.90
54431;DHT22;40342;52.998;5.862;2024-03-23T11:57:29;6.40;99.90
54431;DHT22;40342;52.998;5.862;2024-03-23T11:59:55;6.60;99.90
54431;DHT22;40342;52.998;5.862;2024-03-23T12:02:20;6.80;99.90
54431;DHT22;40342;52.998;5.862;2024-03-23T12:04:46;7.00;99.90
54431;DHT22;40342;52.998;5.862;2024-03-23T12:07:21;7.30;99.90
54431;DHT22;40342;52.998;5.862;2024-03-23T12:10:03;7.80;99.90
54431;DHT22;40342;52.998;5.862;2024-03-23T12:12:29;7.90;99.90
54431;DHT22;40342;52.998;5.862;2024-03-23T12:15:03;7.80;99.90
54431;DHT22;40342;52.998;5.862;2024-03-23T12:17:29;7.70;99.90
54431;DHT22;40342;52.998;5.862;2024-03-23T12:19:54;7.60;99.90
54431;DHT22;40342;52.998;5.862;2024-03-23T12:22:24;7.40;99.90
54431;DHT22;40342;52.998;5.862;2024-03-23T12:24:50;7.30;99.90
54431;DHT22;40342;52.998;5.862;2024-03-23T12:27:16;7.20;99.90
54431;DHT22;40342;52.998;5.862;2024-03-23T12:29:42;7.20;99.90
54431;DHT22;40342;52.998;5.862;2024-03-23T12:32:13;7.20;99.90
54431;DHT22;40342;52.998;5.862;2024-03-23T12:34:39;7.10;99.90
54431;DHT22;40342;52.998;5.862;2024-03-23T12:37:05;7.20;99.90
54431;DHT22;40342;52.998;5.862;2024-03-23T12:39:34;7.30;99.90
54431;DHT22;40342;52.998;5.862;2024-03-23T12:42:01;7.40;99.90
54431;DHT22;40342;52.998;5.862;2024-03-23T12:44:28;7.60;99.90
54431;DHT22;40342;52.998;5.862;2024-03-23T12:46:54;7.80;99.90
54431;DHT22;40342;52.998;5.862;2024-03-23T12:49:20;7.90;99.90
54431;DHT22;40342;52.998;5.862;2024-03-23T12:51:55;8.10;99.90
54431;DHT22;40342;52.998;5.862;2024-03-23T12:54:22;8.20;99.90
54431;DHT22;40342;52.998;5.862;2024-03-23T12:56:48;8.30;99.90
54431;DHT22;40342;52.998;5.862;2024-03-23T12:59:13;8.30;99.90
54431;DHT22;40342;52.998;5.862;2024-03-23T13:01:39;8.20;99.90
54431;DHT22;40342;52.998;5.862;2024-03-23T13:04:06;8.00;99.90
54431;DHT22;40342;52.998;5.862;2024-03-23T13:06:31;7.90;99.90
54431;DHT22;40342;52.998;5.862;2024-03-23T13:09:03;8.00;99.90
54431;DHT22;40342;52.998;5.862;2024-03-23T13:11:30;8.10;99.90
54431;DHT22;40342;52.998;5.862;2024-03-23T13:13:55;8.30;99.90
54431;DHT22;40342;52.998;5.862;2024-03-23T13:16:21;8.30;99.90
54431;DHT22;40342;52.998;5.862;2024-03-23T13:18:47;8.30;99.90
54431;DHT22;40342;52.998;5.862;2024-03-23T13:21:12;8.30;99.90
54431;DHT22;40342;52.998;5.862;2024-03-23T13:23:38;8.50;99.90
54431;DHT22;40342;52.998;5.862;2024-03-23T13:26:07;8.70;99.90
54431;DHT22;40342;52.998;5.862;2024-03-23T13:28:33;8.90;99.90
54431;DHT22;40342;52.998;5.862;2024-03-23T13:30:59;9.20;99.90
54431;DHT22;40342;52.998;5.862;2024-03-23T13:33:32;9.40;99.90
54431;DHT22;40342;52.998;5.862;2024-03-23T13:35:58;9.40;99.90
54431;DHT22;40342;52.998;5.862;2024-03-23T13:38:23;9.20;99.90
54431;DHT22;40342;52.998;5.862;2024-03-23T13:40:56;9.00;99.90
54431;DHT22;40342;52.998;5.862;2024-03-23T13:43:23;8.80;99.90
54431;DHT22;40342;52.998;5.862;2024-03-23T13:45:51;8.40;99.90
54431;DHT22;40342;52.998;5.862;2024-03-23T13:48:19;8.30;99.90
54431;DHT22;40342;52.998;5.862;2024-03-23T13:50:45;8.30;99.90
54431;DHT22;40342;52.998;5.862;2024-03-23T13:53:13;8.30;99.90
54431;DHT22;40342;52.998;5.862;2024-03-23T13:55:49;8.40;99.90
54431;DHT22;40342;52.998;5.862;2024-03-23T13:58:15;8.50;99.90
54431;DHT22;40342;52.998;5.862;2024-03-23T14:00:41;8.40;99.90
54431;DHT22;40342;52.998;5.862;2024-03-23T14:03:10;8.30;99.90
54431;DHT22;40342;52.998;5.862;2024-03-23T14:05:37;8.30;99.90
54431;DHT22;40342;52.998;5.862;2024-03-23T14:08:07;8.20;99.90
54431;DHT22;40342;52.998;5.862;2024-03-23T14:10:32;9.10;99.90
54431;DHT22;40342;52.998;5.862;2024-03-23T14:12:58;8.70;99.90
54431;DHT22;40342;52.998;5.862;2024-03-23T14:15:26;8.90;99.90
54431;DHT22;40342;52.998;5.862;2024-03-23T14:17:52;9.00;99.90
54431;DHT22;40342;52.998;5.862;2024-03-23T14:20:17;9.10;99.90
54431;DHT22;40342;52.998;5.862;2024-03-23T14:22:43;8.90;99.90
54431;DHT22;40342;52.998;5.862;2024-03-23T14:25:09;8.70;99.90
54431;DHT22;40342;52.998;5.862;2024-03-23T14:27:35;8.50;99.90
54431;DHT22;40342;52.998;5.862;2024-03-23T14:30:04;8.40;99.90
54431;DHT22;40342;52.998;5.862;2024-03-23T14:32:30;8.20;99.90
54431;DHT22;40342;52.998;5.862;2024-03-23T14:35:06;8.20;99.90
54431;DHT22;40342;52.998;5.862;2024-03-23T14:37:33;8.00;99.90
54431;DHT22;40342;52.998;5.862;2024-03-23T14:39:58;8.00;99.90
54431;DHT22;40342;52.998;5.862;2024-03-23T14:42:24;7.80;99.90
54431;DHT22;40342;52.998;5.862;2024-03-23T14:44:51;7.80;99.90
54431;DHT22;40342;52.998;5.862;2024-03-23T14:47:17;7.70;99.90
54431;DHT22;40342;52.998;5.862;2024-03-23T14:49:44;7.50;99.90
54431;DHT22;40342;52.998;5.862;2024-03-23T14:52:19;7.30;99.90
54431;DHT22;40342;52.998;5.862;2024-03-23T14:54:45;7.10;99.90
54431;DHT22;40342;52.998;5.862;2024-03-23T14:57:11;6.60;99.90
54431;DHT22;40342;52.998;5.862;2024-03-23T14:59:37;6.40;99.90
54431;DHT22;40342;52.998;5.862;2024-03-23T15:02:09;6.50;99.90
54431;DHT22;40342;52.998;5.862;2024-03-23T15:04:35;6.80;99.90
54431;DHT22;40342;52.998;5.862;2024-03-23T15:07:01;7.10;99.90
54431;DHT22;40342;52.998;5.862;2024-03-23T15:09:26;7.30;99.90
54431;DHT22;40342;52.998;5.862;2024-03-23T15:11:52;7.40;99.90
54431;DHT22;40342;52.998;5.862;2024-03-23T15:14:20;7.50;99.90
54431;DHT22;40342;52.998;5.862;2024-03-23T15:16:46;7.80;99.90
54431;DHT22;40342;52.998;5.862;2024-03-23T15:19:14;8.00;99.90
54431;DHT22;40342;52.998;5.862;2024-03-23T15:21:40;8.20;99.90
54431;DHT22;40342;52.998;5.862;2024-03-23T15:24:06;8.20;99.90
54431;DHT22;40342;52.998;5.862;2024-03-23T15:26:32;8.00;99.90
54431;DHT22;40342;52.998;5.862;2024-03-23T15:28:58;7.90;99.90
54431;DHT22;40342;52.998;5.862;2024-03-23T15:31:24;7.80;99.90
54431;DHT22;40342;52.998;5.862;2024-03-23T15:33:50;7.70;99.90
54431;DHT22;40342;52.998;5.862;2024-03-23T15:36:16;7.70;99.90
54431;DHT22;40342;52.998;5.862;2024-03-23T15:38:43;7.70;99.90
54431;DHT22;40342;52.998;5.862;2024-03-23T15:41:09;7.90;99.90
54431;DHT22;40342;52.998;5.862;2024-03-23T15:43:35;7.90;99.90
54431;DHT22;40342;52.998;5.862;2024-03-23T15:46:03;8.10;99.90
54431;DHT22;40342;52.998;5.862;2024-03-23T15:48:30;8.20;99.90
54431;DHT22;40342;52.998;5.862;2024-03-23T15:50:57;8.20;99.90
54431;DHT22;40342;52.998;5.862;2024-03-23T15:53:24;8.30;99.90
54431;DHT22;40342;52.998;5.862;2024-03-23T15:56:00;8.40;99.90
54431;DHT22;40342;52.998;5.862;2024-03-23T15:58:27;8.40;99.90
54431;DHT22;40342;52.998;5.862;2024-03-23T16:01:00;8.30;99.90
54431;DHT22;40342;52.998;5.862;2024-03-23T16:03:26;8.20;99.90
54431;DHT22;40342;52.998;5.862;2024-03-23T16:06:02;7.90;99.90
54431;DHT22;40342;52.998;5.862;2024-03-23T16:08:28;7.70;99.90
54431;DHT22;40342;52.998;5.862;2024-03-23T16:10:54;7.60;99.90
54431;DHT22;40342;52.998;5.862;2024-03-23T16:13:21;7.60;99.90
54431;DHT22;40342;52.998;5.862;2024-03-23T16:16:03;7.50;99.90
54431;DHT22;40342;52.998;5.862;2024-03-23T16:18:32;7.50;99.90
54431;DHT22;40342;52.998;5.862;2024-03-23T16:21:02;7.60;99.90
54431;DHT22;40342;52.998;5.862;2024-03-23T16:23:29;7.60;99.90
54431;DHT22;40342;52.998;5.862;2024-03-23T16:25:55;7.50;99.90
54431;DHT22;40342;52.998;5.862;2024-03-23T16:28:36;7.60;99.90
54431;DHT22;40342;52.998;5.862;2024-03-23T16:31:07;7.50;99.90
54431;DHT22;40342;52.998;5.862;2024-03-23T16:33:33;7.40;99.90
54431;DHT22;40342;52.998;5.862;2024-03-23T16:36:00;7.20;99.90
54431;DHT22;40342;52.998;5.862;2024-03-23T16:38:29;7.10;99.90
54431;DHT22;40342;52.998;5.862;2024-03-23T16:40:59;7.00;99.90
54431;DHT22;40342;52.998;5.862;2024-03-23T16:43:26;6.90;99.90
54431;DHT22;40342;52.998;5.862;2024-03-23T16:45:59;6.80;99.90
54431;DHT22;40342;52.998;5.862;2024-03-23T16:48:26;6.80;99.90